Flight Information

DEPARTURE
,
Elevation:
DESTINATION
FULLERTON, CA
Elevation:
96
TPA:
1100 (1004)
Runways:
6/24 - 3121x75 - ASPH-G
H1 - 37x37 - CONC
ATIS:
125.05 714-870-6222
Tower:
119.1
Ground:
121.8


6775.3 NM307° True-66° Var241° HDG

Flight Plan:
(click to file on line)

1. Type
2. Aircraft Identification
3. Aircraft Type / Special Equipment
4. True Airspeed
kts
5. Departure Airport
(ICAO code)
6. Arriving Airport
(ICAO code)
7. Cruising Altitude
ft
8. Alternate Airport
(ICAO code)
9. Route of Flight
10. Remarks


00:00:00 Departure ATIS: Destination ATIS:

Clearance Limit:
Route:
Altitude: Expect in minutes
Frequency:
Transponder: (7500 Hijack / 7600 Lost Comms / 7700 Emergency)


Time:
1660830286
Visibility: sm
Clouds (AGL):
Temperature: C
Dew Point: C
Pressure: in Hgbr

KFUL 181253Z AUTO 00000KT 10SM CLR 21/15 A2991 RMK AO2 SLP126 T02060150
Time: 2022-08-18T12:53:00Z
1660830286
Winds: calm
Visibility: 10.0 sm
Clouds (AGL): CLR
Temperature: 20.6 C
Dew Point: 15.0 C
Pressure: 29.911417 in Hgbr


Notes:

Data extracted from FAA Digital Chart Supplement. Effective: 0901Z Thursday, 27 JAN 2022 to 0900z Thursday, 24 MAR 2022
Current ATIS data is provided courtisy of PilotEdge.